METAR Data
IDs: Format: Raw Decoded Include TAF

Data at: 2058 UTC 18 Apr 2021

KVRB 182053Z 22011KT 10SM CLR 32/19 A2984 RMK AO2 SLP104 T03170194 57022 $
KVRB 181953Z 21010KT 10SM FEW050 SCT060 SCT090 32/19 A2986 RMK AO2 SLP110 T03170194 $
KVRB 181853Z 23009KT 10SM FEW048 BKN070 BKN085 31/19 A2989 RMK AO2 SLP121 T03110194 $
KVRB 181753Z 24011KT 10SM FEW043 BKN055 BKN070 32/20 A2991 RMK AO2 SLP126 T03170200 10317 20211 58013
KVRB 181653Z 26012G18KT 10SM SCT043 BKN050 32/20 A2993 RMK AO2 SLP133 T03170200
KVRB 181553Z 21013KT 10SM FEW034 29/20 A2994 RMK AO2 SLP138 T02940200
KVRB 181509Z 20009KT 10SM SCT021 28/21 A2995 RMK AO2 T02830211
KVRB 181453Z 20011KT 10SM SCT017 BKN024 28/21 A2995 RMK AO2 SLP140 T02830211 56004
KVRB 181451Z 20012G18KT 10SM BKN020 BKN024 28/21 A2995 RMK AO2
KVRB 181444Z 19011KT 10SM SCT018 27/22 A2994 RMK AO2 T02720217
KVRB 181437Z 21012KT 10SM SCT016 BKN021 27/22 A2995 RMK AO2 T02720217
KVRB 181408Z 20010KT 10SM SCT009 26/22 A2995 RMK AO2 T02560222
KVRB 181353Z 21007KT 10SM BKN005 25/22 A2996 RMK AO2 SLP143 T02500217
KVRB 181349Z 20009KT 10SM BKN005 25/22 A2996 RMK AO2
KVRB 181342Z 22009KT 10SM FEW010 24/22 A2996 RMK AO2 T02440217
KVRB 181308Z 22007KT 7SM SCT003 23/22 A2996 RMK AO2 T02280217
KVRB 181253Z 23005KT 6SM BR BKN003 22/21 A2996 RMK AO2 SLP144 T02220211
KVRB 181243Z 21005KT 4SM BR OVC002 22/21 A2996 RMK AO2 T02170211
KVRB 181233Z 21004KT 2 1/2SM BR OVC002 22/21 A2996 RMK AO2 T02170211
KVRB 181226Z 21004KT 1 3/4SM BR OVC002 21/21 A2996 RMK AO2 T02110211
KVRB 181216Z 22004KT 1/2SM FG BKN002 21/21 A2996 RMK AO2 T02110206
KVRB 181205Z 24003KT 1 3/4SM BR BKN002 21/21 A2995 RMK AO2 VIS 1V3 T02110206
KVRB 181159Z 23004KT 2 1/2SM BR FEW002 21/21 A2995 RMK AO2 T02110206
KVRB 181153Z 23005KT 5SM BR CLR 21/21 A2995 RMK AO2 SLP141 T02110206 10217 20189 53010
KVRB 181053Z 00000KT 7SM CLR 21/19 A2993 RMK AO2 SLP134 T02060194
KVRB 180953Z AUTO 20007KT 9SM FEW015 21/19 A2992 RMK AO2 SLP130 T02060194
KVRB 180948Z AUTO 21006KT 9SM SCT015 21/19 A2992 RMK AO2
KVRB 180853Z AUTO 00000KT 10SM SCT015 BKN020 OVC038 21/20 A2993 RMK AO2 SLP134 T02110200 53006
KVRB 180753Z AUTO 23003KT 10SM BKN025 21/19 A2992 RMK AO2 SLP130 T02060194
KVRB 180750Z AUTO 24003KT 9SM BKN025 20/19 A2992 RMK AO2
KVRB 180653Z AUTO 00000KT 10SM CLR 21/19 A2991 RMK AO2 SLP128 T02110194
KVRB 180553Z AUTO 26005KT 10SM CLR 22/19 A2991 RMK AO2 SLP129 T02170194 10289 20211 50008
KVRB 180453Z AUTO 26005KT 10SM CLR 22/19 A2992 RMK AO2 SLP132 T02220194 403280183
KVRB 180353Z AUTO 28007KT 10SM CLR 23/19 A2991 RMK AO2 SLP128 T02330194
KVRB 180253Z AUTO 27007KT 10SM CLR 25/19 A2989 RMK AO2 SLP120 T02500194 52017
KVRB 180153Z AUTO 26011KT 10SM CLR 27/19 A2987 RMK AO2 SLP114 T02670189
KVRB 180053Z 26011KT 10SM CLR 28/18 A2986 RMK AO2 SLP109 T02780183
KVRB 172353Z 26008KT 10SM CLR 29/18 A2984 RMK AO2 SLP103 T02890178 10328 20289 52008
KVRB 172253Z 26010KT 10SM FEW060 31/17 A2983 RMK AO2 SLP100 T03110172
KVRB 172153Z 23012KT 10SM CLR 32/16 A2982 RMK AO2 SLP097 T03170156
KVRB 172053Z 21010KT 10SM CLR 32/17 A2981 RMK AO2 SLP094 T03220172 56023
KVRB 171953Z 22013KT 10SM SCT056 32/18 A2982 RMK AO2 SLP098 T03170178
KVRB 171853Z 23010KT 10SM FEW048 32/19 A2986 RMK AO2 SLP110 T03170189
KVRB 171753Z 27012KT 10SM SCT042 SCT050 31/19 A2988 RMK AO2 SLP117 T03110194 10317 20206 56016
KVRB 171653Z 28012G19KT 10SM BKN037 BKN047 30/20 A2990 RMK AO2 SLP122 T03000200
KVRB 171555Z 24009G17KT 10SM SCT032 29/20 A2991 RMK AO2 T02940200
KVRB 171553Z 23012G17KT 10SM SCT023 BKN030 29/20 A2991 RMK AO2 SLP127 T02940200
KVRB 171458Z 25011KT 8SM SCT023 BKN030 27/21 A2992 RMK AO2 T02670211
KVRB 171453Z 26010KT 8SM BKN021 27/21 A2993 RMK AO2 SLP133 T02670211 50011
KVRB 171441Z 26011KT 8SM SCT021 27/21 A2994 RMK AO2 T02670211
KVRB 171353Z 25010KT 5SM BR SCT006 24/22 A2993 RMK AO2 SLP135 T02390217
KVRB 171328Z 26005KT 3SM BR SCT006 23/21 A2993 RMK AO2 T02280211
KVRB 171258Z 25005KT 2SM BR BKN006 22/21 A2991 RMK AO2 T02170206
KVRB 171253Z 24004KT 2SM BR SCT006 22/21 A2991 RMK AO2 SLP126 T02170206
KVRB 171218Z 24007KT 2SM BR CLR 21/20 A2990 RMK AO2 T02110200
KVRB 171153Z 24005KT 3SM BR CLR 21/20 A2990 RMK AO2 SLP122 T02060200 10217 20183 53012
KVRB 171053Z 24007KT 5SM BR CLR 20/19 A2987 RMK AO2 SLP114 T02000194
KVRB 170953Z AUTO 23006KT 6SM BR CLR 19/19 A2987 RMK AO2 SLP112 T01940189